createdAt,value
2016-04-27T00:00:00.088Z,990.73
2016-04-27T00:01:00.060Z,990.7
2016-04-27T00:02:00.046Z,990.78
2016-04-27T00:03:00.034Z,990.7
2016-04-27T00:04:00.005Z,990.74
2016-04-27T00:04:59.993Z,990.7
2016-04-27T00:06:00.323Z,990.71
2016-04-27T00:06:59.951Z,990.74
2016-04-27T00:07:59.937Z,990.7
2016-04-27T00:08:59.910Z,990.73
2016-04-27T00:09:59.896Z,990.71
2016-04-27T00:10:59.867Z,990.73
2016-04-27T00:11:59.839Z,990.75
2016-04-27T00:12:59.826Z,990.72
2016-04-27T00:13:59.814Z,990.76
2016-04-27T00:14:59.784Z,990.72
2016-04-27T00:15:59.772Z,990.79
2016-04-27T00:16:59.742Z,990.82
2016-04-27T00:17:59.730Z,990.79
2016-04-27T00:18:59.905Z,990.87
2016-04-27T00:20:03.625Z,990.87
2016-04-27T00:20:59.676Z,990.8
2016-04-27T00:21:59.647Z,990.87
2016-04-27T00:22:59.634Z,990.86
2016-04-27T00:23:59.606Z,990.76
2016-04-27T00:24:59.593Z,990.83
2016-04-27T00:25:59.564Z,990.88
2016-04-27T00:26:59.551Z,990.83
2016-04-27T00:27:59.522Z,990.75
2016-04-27T00:28:59.510Z,990.84
2016-04-27T00:29:59.482Z,990.84
2016-04-27T00:30:59.468Z,990.81
2016-04-27T00:31:59.455Z,990.9
2016-04-27T00:32:59.427Z,990.87
2016-04-27T00:33:59.414Z,990.84
2016-04-27T00:34:59.385Z,990.8
2016-04-27T00:35:59.388Z,990.89
2016-04-27T00:36:59.343Z,990.84
2016-04-27T00:37:59.331Z,990.81
2016-04-27T00:38:59.302Z,990.83
2016-04-27T00:39:59.370Z,990.88
2016-04-27T00:40:59.264Z,990.87
2016-04-27T00:41:59.291Z,990.9
2016-04-27T00:42:59.218Z,991.07
2016-04-27T00:43:59.280Z,990.82
2016-04-27T00:44:59.212Z,990.8
2016-04-27T00:45:59.152Z,991
2016-04-27T00:46:59.140Z,990.87
2016-04-27T00:47:59.111Z,990.96
2016-04-27T00:48:59.098Z,990.92
2016-04-27T00:49:59.070Z,990.9
2016-04-27T00:50:59.057Z,990.98
2016-04-27T00:51:59.043Z,990.86
2016-04-27T00:52:59.015Z,990.93
2016-04-27T00:53:59.002Z,990.95
2016-04-27T00:54:58.972Z,991
2016-04-27T00:55:58.961Z,990.89
2016-04-27T00:56:58.932Z,991.05
2016-04-27T00:57:58.919Z,990.92
2016-04-27T00:58:58.890Z,990.94
2016-04-27T00:59:58.878Z,991.04
2016-04-27T01:00:58.849Z,990.96
2016-04-27T01:01:58.836Z,990.98
2016-04-27T01:02:58.808Z,990.97
2016-04-27T01:03:58.794Z,991.03
2016-04-27T01:04:58.782Z,991.08
2016-04-27T01:05:58.752Z,991.04
2016-04-27T01:06:58.725Z,991.06
2016-04-27T01:07:58.711Z,991.01
2016-04-27T01:08:58.698Z,991.06
2016-04-27T01:09:58.671Z,991.1
2016-04-27T01:10:58.657Z,991
2016-04-27T01:11:58.628Z,991.07
2016-04-27T01:12:58.615Z,991.07
2016-04-27T01:13:58.587Z,991.01
2016-04-27T01:14:58.574Z,991.05
2016-04-27T01:15:58.545Z,991.06
2016-04-27T01:16:58.532Z,991.06
2016-04-27T01:17:58.504Z,991.01
2016-04-27T01:18:58.490Z,991.06
2016-04-27T01:19:58.462Z,990.94
2016-04-27T01:20:58.450Z,990.96
2016-04-27T01:21:58.780Z,990.89
2016-04-27T01:22:58.400Z,990.94
2016-04-27T01:23:58.386Z,990.97
2016-04-27T01:24:58.374Z,990.96
2016-04-27T01:25:58.345Z,990.91
2016-04-27T01:26:58.317Z,990.88
2016-04-27T01:27:58.304Z,990.92
2016-04-27T01:28:58.275Z,990.92
2016-04-27T01:29:58.263Z,990.91
2016-04-27T01:30:58.234Z,990.94
2016-04-27T01:31:58.221Z,990.95
2016-04-27T01:32:58.193Z,990.99
2016-04-27T01:33:58.274Z,990.99
2016-04-27T01:34:58.152Z,990.97
2016-04-27T01:35:58.138Z,990.95
2016-04-27T01:36:58.110Z,990.93
2016-04-27T01:37:58.097Z,990.93
2016-04-27T01:38:58.084Z,990.91
2016-04-27T01:39:58.071Z,991.01
2016-04-27T01:40:58.042Z,990.92
2016-04-27T01:41:58.013Z,990.9
2016-04-27T01:42:58.001Z,990.97
2016-04-27T01:43:57.972Z,990.88
2016-04-27T01:44:57.959Z,990.96
2016-04-27T01:45:57.931Z,990.89
2016-04-27T01:46:57.918Z,990.88
2016-04-27T01:47:57.904Z,990.93
2016-04-27T01:48:57.876Z,991.05
2016-04-27T01:49:57.849Z,990.9
2016-04-27T01:50:57.836Z,990.95
2016-04-27T01:51:57.807Z,990.95
2016-04-27T01:52:57.794Z,990.99
2016-04-27T01:53:57.766Z,990.97
2016-04-27T01:54:57.753Z,990.95
2016-04-27T01:55:57.723Z,991.07
2016-04-27T01:56:57.712Z,991
2016-04-27T01:57:57.682Z,991
2016-04-27T01:58:57.670Z,990.99
2016-04-27T01:59:57.641Z,991.01
2016-04-27T02:00:57.628Z,990.97
2016-04-27T02:01:57.600Z,990.97
2016-04-27T02:02:57.587Z,991.06
2016-04-27T02:03:57.558Z,991.04
2016-04-27T02:04:57.545Z,991.08
2016-04-27T02:05:57.704Z,991.08
2016-04-27T02:06:57.551Z,991.1
2016-04-27T02:07:57.475Z,991.03
2016-04-27T02:08:57.462Z,991.15
2016-04-27T02:09:57.434Z,991.12
2016-04-27T02:10:57.422Z,991.09
2016-04-27T02:11:57.408Z,991.12
2016-04-27T02:12:57.379Z,991.09
2016-04-27T02:13:57.366Z,991.11
2016-04-27T02:14:57.338Z,991.05
2016-04-27T02:15:57.324Z,991.1
2016-04-27T02:16:57.312Z,991.09
2016-04-27T02:17:57.283Z,991.12
2016-04-27T02:18:57.458Z,991.12
2016-04-27T02:19:57.241Z,991.13
2016-04-27T02:20:57.213Z,991.15
2016-04-27T02:21:57.201Z,991.12
2016-04-27T02:22:57.172Z,991.11
2016-04-27T02:23:57.159Z,991.16
2016-04-27T02:24:57.130Z,991.21
2016-04-27T02:25:57.118Z,991.18
2016-04-27T02:26:57.090Z,991.32
2016-04-27T02:27:57.075Z,991.21
2016-04-27T02:28:57.047Z,991.17
2016-04-27T02:29:57.035Z,991.28
2016-04-27T02:30:57.021Z,991.22
2016-04-27T02:31:56.992Z,991.22
2016-04-27T02:32:56.980Z,991.31
2016-04-27T02:33:56.951Z,991.26
2016-04-27T02:34:56.939Z,991.29
2016-04-27T02:35:56.909Z,991.26
2016-04-27T02:36:56.882Z,991.36
2016-04-27T02:37:56.883Z,991.29
2016-04-27T02:38:56.856Z,991.44
2016-04-27T02:39:56.827Z,991.42
2016-04-27T02:40:56.814Z,991.44
2016-04-27T02:41:56.786Z,991.42
2016-04-27T02:42:56.780Z,991.42
2016-04-27T02:43:56.793Z,991.47
2016-04-27T02:44:56.837Z,991.37
2016-04-27T02:45:56.836Z,991.41
2016-04-27T02:46:56.864Z,991.47
2016-04-27T02:47:56.872Z,991.4
2016-04-27T02:48:56.876Z,991.39
2016-04-27T02:49:56.878Z,991.42
2016-04-27T02:50:56.897Z,991.43
2016-04-27T02:51:56.867Z,991.45
2016-04-27T02:52:56.852Z,991.45
2016-04-27T02:53:56.845Z,991.41
2016-04-27T02:54:56.821Z,991.46
2016-04-27T02:55:56.814Z,991.49
2016-04-27T02:56:56.806Z,991.42
2016-04-27T02:57:56.782Z,991.48
2016-04-27T02:58:56.755Z,991.52
2016-04-27T02:59:56.746Z,991.48
2016-04-27T03:00:56.718Z,991.47
2016-04-27T03:01:56.707Z,991.48
2016-04-27T03:02:56.712Z,991.52
2016-04-27T03:03:56.668Z,991.54
2016-04-27T03:04:56.687Z,991.5
2016-04-27T03:05:56.628Z,991.51
2016-04-27T03:06:56.663Z,991.5
2016-04-27T03:07:56.588Z,991.51
2016-04-27T03:08:56.560Z,991.56
2016-04-27T03:09:56.548Z,991.55
2016-04-27T03:10:56.519Z,991.53
2016-04-27T03:11:56.506Z,991.54
2016-04-27T03:12:56.495Z,991.59
2016-04-27T03:13:56.482Z,991.53
2016-04-27T03:14:56.453Z,991.5
2016-04-27T03:15:56.424Z,991.53
2016-04-27T03:16:56.411Z,991.53
2016-04-27T03:17:56.383Z,991.54
2016-04-27T03:18:56.369Z,991.54
2016-04-27T03:19:56.341Z,991.53
2016-04-27T03:20:56.328Z,991.49
2016-04-27T03:21:56.300Z,991.48
2016-04-27T03:22:56.286Z,991.49
2016-04-27T03:23:56.258Z,991.48
2016-04-27T03:24:56.245Z,991.53
2016-04-27T03:25:56.217Z,991.51
2016-04-27T03:26:56.204Z,991.48
2016-04-27T03:27:56.174Z,991.53
2016-04-27T03:28:56.163Z,991.56
2016-04-27T03:29:56.133Z,991.47
2016-04-27T03:30:56.121Z,991.5
2016-04-27T03:31:56.093Z,991.45
2016-04-27T03:32:56.079Z,991.45
2016-04-27T03:33:56.051Z,991.46
2016-04-27T03:34:56.038Z,991.47
2016-04-27T03:35:56.024Z,991.45
2016-04-27T03:36:55.996Z,991.42
2016-04-27T03:37:55.984Z,991.45
2016-04-27T03:38:55.954Z,991.41
2016-04-27T03:39:55.942Z,991.5
2016-04-27T03:40:55.913Z,991.42
2016-04-27T03:41:55.900Z,991.46
2016-04-27T03:42:55.872Z,991.47
2016-04-27T03:43:55.859Z,991.43
2016-04-27T03:44:55.845Z,991.48
2016-04-27T03:45:55.817Z,991.5
2016-04-27T03:46:55.789Z,991.46
2016-04-27T03:47:55.776Z,991.49
2016-04-27T03:48:55.747Z,991.45
2016-04-27T03:49:55.734Z,991.51
2016-04-27T03:50:55.721Z,991.48
2016-04-27T03:51:56.443Z,991.48
2016-04-27T03:52:55.664Z,991.46
2016-04-27T03:53:55.652Z,991.51
2016-04-27T03:54:55.623Z,991.55
2016-04-27T03:55:55.610Z,991.45
2016-04-27T03:56:55.581Z,991.47
2016-04-27T03:57:55.568Z,991.5
2016-04-27T03:58:55.555Z,991.46
2016-04-27T03:59:55.527Z,991.5
2016-04-27T04:00:55.513Z,991.49
2016-04-27T04:01:55.485Z,991.46
2016-04-27T04:02:55.472Z,991.41
2016-04-27T04:03:55.444Z,991.46
2016-04-27T04:04:55.432Z,991.45
2016-04-27T04:05:55.403Z,991.48
2016-04-27T04:06:55.390Z,991.41
2016-04-27T04:07:55.361Z,991.39
2016-04-27T04:08:55.349Z,991.41
2016-04-27T04:09:55.336Z,991.41
2016-04-27T04:10:55.307Z,991.42
2016-04-27T04:11:55.280Z,991.45
2016-04-27T04:12:55.266Z,991.41
2016-04-27T04:13:55.252Z,991.45
2016-04-27T04:14:55.224Z,991.38
2016-04-27T04:15:55.196Z,991.41
2016-04-27T04:16:55.182Z,991.4
2016-04-27T04:17:55.155Z,991.35
2016-04-27T04:18:55.141Z,991.42
2016-04-27T04:19:55.113Z,991.4
2016-04-27T04:20:55.101Z,991.44
2016-04-27T04:21:55.259Z,991.4
2016-04-27T04:22:55.063Z,991.38
2016-04-27T04:23:55.049Z,991.38
2016-04-27T04:24:55.021Z,991.37
2016-04-27T04:25:54.991Z,991.39
2016-04-27T04:26:54.980Z,991.36
2016-04-27T04:27:54.951Z,991.33
2016-04-27T04:28:54.938Z,991.36
2016-04-27T04:29:54.925Z,991.37
2016-04-27T04:30:54.897Z,991.37
2016-04-27T04:31:54.883Z,991.33
2016-04-27T04:32:54.855Z,991.33
2016-04-27T04:33:54.842Z,991.39
2016-04-27T04:34:54.813Z,991.35
2016-04-27T04:35:54.800Z,991.37
2016-04-27T04:36:54.771Z,991.34
2016-04-27T04:37:54.759Z,991.35
2016-04-27T04:38:54.731Z,991.39
2016-04-27T04:39:54.717Z,991.4
2016-04-27T04:40:54.689Z,991.38
2016-04-27T04:41:54.676Z,991.38
2016-04-27T04:42:54.647Z,991.37
2016-04-27T04:43:54.635Z,991.36
2016-04-27T04:44:54.606Z,991.33
2016-04-27T04:45:54.593Z,991.37
2016-04-27T04:46:54.564Z,991.39
2016-04-27T04:47:54.551Z,991.38
2016-04-27T04:48:54.539Z,991.39
2016-04-27T04:49:54.510Z,991.38
2016-04-27T04:50:54.497Z,991.4
2016-04-27T04:51:54.469Z,991.39
2016-04-27T04:52:54.455Z,991.39
2016-04-27T04:53:54.428Z,991.36
2016-04-27T04:54:54.414Z,991.4
2016-04-27T04:55:54.401Z,991.43
2016-04-27T04:56:54.372Z,991.38
2016-04-27T04:57:54.344Z,991.39
2016-04-27T04:58:54.330Z,991.4
2016-04-27T04:59:54.302Z,991.41
2016-04-27T05:00:54.291Z,991.38
2016-04-27T05:01:54.277Z,991.4
2016-04-27T05:02:54.249Z,991.43
2016-04-27T05:03:54.235Z,991.42
2016-04-27T05:04:54.238Z,991.39
2016-04-27T05:05:54.194Z,991.39
2016-04-27T05:06:54.165Z,991.45
2016-04-27T05:07:54.152Z,991.44
2016-04-27T05:08:54.123Z,991.42
2016-04-27T05:09:54.110Z,991.42
2016-04-27T05:10:54.082Z,991.5
2016-04-27T05:11:54.070Z,991.47
2016-04-27T05:12:54.057Z,991.51
2016-04-27T05:13:54.028Z,991.46
2016-04-27T05:14:54.015Z,991.5
2016-04-27T05:15:53.986Z,991.42
2016-04-27T05:16:53.973Z,991.44
2016-04-27T05:17:53.944Z,991.47
2016-04-27T05:18:53.931Z,991.5
2016-04-27T05:19:53.903Z,991.44
2016-04-27T05:20:53.890Z,991.55
2016-04-27T05:21:53.878Z,991.53
2016-04-27T05:22:53.849Z,991.49
2016-04-27T05:23:53.836Z,991.58
2016-04-27T05:24:53.807Z,991.54
2016-04-27T05:25:53.794Z,991.48
2016-04-27T05:26:53.781Z,991.42
2016-04-27T05:27:53.752Z,991.52
2016-04-27T05:28:53.725Z,991.46
2016-04-27T05:29:53.711Z,991.51
2016-04-27T05:30:53.683Z,991.52
2016-04-27T05:31:53.670Z,991.51
2016-04-27T05:32:53.641Z,991.46
2016-04-27T05:33:53.629Z,991.44
2016-04-27T05:34:53.615Z,991.41
2016-04-27T05:35:53.587Z,991.42
2016-04-27T05:36:53.574Z,991.47
2016-04-27T05:37:53.577Z,991.45
2016-04-27T05:38:53.532Z,991.5
2016-04-27T05:39:53.504Z,991.51
2016-04-27T05:40:53.491Z,991.53
2016-04-27T05:41:53.478Z,991.49
2016-04-27T05:42:53.449Z,991.44
2016-04-27T05:43:53.420Z,991.47
2016-04-27T05:44:53.408Z,991.53
2016-04-27T05:45:53.379Z,991.49
2016-04-27T05:46:53.367Z,991.52
2016-04-27T05:47:53.338Z,991.51
2016-04-27T05:48:53.325Z,991.5
2016-04-27T05:49:53.312Z,991.52
2016-04-27T05:50:53.283Z,991.58
2016-04-27T05:51:53.270Z,991.57
2016-04-27T05:52:53.258Z,991.53
2016-04-27T05:53:53.229Z,991.55
2016-04-27T05:54:53.200Z,991.62
2016-04-27T05:55:53.188Z,991.56
2016-04-27T05:56:53.175Z,991.52
2016-04-27T05:57:53.147Z,991.62
2016-04-27T05:58:53.133Z,991.65
2016-04-27T05:59:53.105Z,991.61
2016-04-27T06:00:53.076Z,991.61
2016-04-27T06:01:53.063Z,991.63
2016-04-27T06:02:53.035Z,991.64
2016-04-27T06:03:53.022Z,991.64
2016-04-27T06:04:53.008Z,991.64
2016-04-27T06:05:52.980Z,991.69
2016-04-27T06:06:52.967Z,991.64
2016-04-27T06:07:52.970Z,991.72
2016-04-27T06:08:52.926Z,991.76
2016-04-27T06:09:52.896Z,991.75
2016-04-27T06:10:52.885Z,991.82
2016-04-27T06:11:52.887Z,991.79
2016-04-27T06:12:52.843Z,991.81
2016-04-27T06:13:52.815Z,991.72
2016-04-27T06:14:52.801Z,991.75
2016-04-27T06:15:52.788Z,991.8
2016-04-27T06:16:52.759Z,991.75
2016-04-27T06:17:52.731Z,991.79
2016-04-27T06:18:52.718Z,991.71
2016-04-27T06:19:52.908Z,991.8
2016-04-27T06:20:52.677Z,991.77
2016-04-27T06:21:52.664Z,991.74
2016-04-27T06:22:53.136Z,991.77
2016-04-27T06:23:52.623Z,991.76
2016-04-27T06:24:54.172Z,991.78
2016-04-27T06:25:52.581Z,991.77
2016-04-27T06:26:52.552Z,991.76
2016-04-27T06:27:52.539Z,991.78
2016-04-27T06:28:52.527Z,991.78
2016-04-27T06:29:52.497Z,991.89
2016-04-27T06:30:52.485Z,991.84
2016-04-27T06:31:52.456Z,991.82
2016-04-27T06:32:52.443Z,991.83
2016-04-27T06:33:52.415Z,991.76
2016-04-27T06:34:52.402Z,991.85
2016-04-27T06:35:52.404Z,991.77
2016-04-27T06:36:52.360Z,991.8
2016-04-27T06:37:52.346Z,991.84
2016-04-27T06:38:52.319Z,991.87
2016-04-27T06:39:52.290Z,991.88
2016-04-27T06:40:52.277Z,991.84
2016-04-27T06:41:52.249Z,991.85
2016-04-27T06:42:52.251Z,991.9
2016-04-27T06:43:52.223Z,991.91
2016-04-27T06:44:52.195Z,991.98
2016-04-27T06:45:52.181Z,992.04
2016-04-27T06:46:52.168Z,992.01
2016-04-27T06:47:52.140Z,991.99
2016-04-27T06:48:52.112Z,992.08
2016-04-27T06:49:52.099Z,991.98
2016-04-27T06:50:52.086Z,992.12
2016-04-27T06:51:52.072Z,992.06
2016-04-27T06:52:52.045Z,992.09
2016-04-27T06:53:52.047Z,992.03
2016-04-27T06:54:52.003Z,992.08
2016-04-27T06:55:51.974Z,992.11
2016-04-27T06:56:51.961Z,992.15
2016-04-27T06:57:51.948Z,992.15
2016-04-27T06:58:51.920Z,992.19
2016-04-27T06:59:51.906Z,992.17
2016-04-27T07:00:51.878Z,992.19
2016-04-27T07:01:51.866Z,992.18
2016-04-27T07:02:51.836Z,992.18
2016-04-27T07:03:51.824Z,992.19
2016-04-27T07:04:51.810Z,992.24
2016-04-27T07:05:51.782Z,992.23
2016-04-27T07:06:51.769Z,992.2
2016-04-27T07:07:52.007Z,992.22
2016-04-27T07:08:51.728Z,992.23
2016-04-27T07:09:51.699Z,992.23
2016-04-27T07:10:51.686Z,992.24
2016-04-27T07:11:51.658Z,992.25
2016-04-27T07:12:51.645Z,992.28
2016-04-27T07:13:51.632Z,992.33
2016-04-27T07:14:51.603Z,992.31
2016-04-27T07:15:51.590Z,992.25
2016-04-27T07:16:51.562Z,992.36
2016-04-27T07:17:51.549Z,992.39
2016-04-27T07:18:51.521Z,992.36
2016-04-27T07:19:51.507Z,992.4
2016-04-27T07:20:51.495Z,992.38
2016-04-27T07:21:51.465Z,992.39
2016-04-27T07:22:51.453Z,992.4
2016-04-27T07:23:51.439Z,992.4
2016-04-27T07:24:51.412Z,992.45
2016-04-27T07:25:51.383Z,992.49
2016-04-27T07:26:51.369Z,992.43
2016-04-27T07:27:51.357Z,992.48
2016-04-27T07:28:51.328Z,992.51
2016-04-27T07:29:51.315Z,992.48
2016-04-27T07:30:51.303Z,992.47
2016-04-27T07:31:51.274Z,992.47
2016-04-27T07:32:51.261Z,992.46
2016-04-27T07:33:51.233Z,992.48
2016-04-27T07:34:51.219Z,992.48
2016-04-27T07:35:51.207Z,992.6
2016-04-27T07:36:51.178Z,992.62
2016-04-27T07:37:51.165Z,992.61
2016-04-27T07:38:51.152Z,992.59
2016-04-27T07:39:51.124Z,992.64
2016-04-27T07:40:51.110Z,992.67
2016-04-27T07:41:51.082Z,992.7
2016-04-27T07:42:51.069Z,992.75
2016-04-27T07:43:51.057Z,992.84
2016-04-27T07:44:51.027Z,992.93
2016-04-27T07:45:51.014Z,992.86
2016-04-27T07:46:51.002Z,992.87
2016-04-27T07:47:50.974Z,992.95
2016-04-27T07:48:50.960Z,992.91
2016-04-27T07:49:50.932Z,992.94
2016-04-27T07:50:50.918Z,992.95
2016-04-27T07:51:50.890Z,993.07
2016-04-27T07:52:50.878Z,993.09
2016-04-27T07:53:50.864Z,993.12
2016-04-27T07:54:50.836Z,993.19
2016-04-27T07:55:50.823Z,993.14
2016-04-27T07:56:50.809Z,993.16
2016-04-27T07:57:50.781Z,993.19
2016-04-27T07:58:50.768Z,993.25
2016-04-27T07:59:50.739Z,993.27
2016-04-27T08:00:50.727Z,993.28
2016-04-27T08:01:50.714Z,993.37
2016-04-27T08:02:50.701Z,993.46
2016-04-27T08:03:50.672Z,993.42
2016-04-27T08:04:50.660Z,993.41
2016-04-27T08:05:50.646Z,993.42
2016-04-27T08:06:50.619Z,993.49
2016-04-27T08:07:51.605Z,993.49
2016-04-27T08:08:50.592Z,993.49
2016-04-27T08:09:50.563Z,993.5
2016-04-27T08:10:50.551Z,993.53
2016-04-27T08:11:50.538Z,993.53
2016-04-27T08:12:50.524Z,993.59
2016-04-27T08:13:50.496Z,993.64
2016-04-27T08:14:50.483Z,993.61
2016-04-27T08:15:50.455Z,993.58
2016-04-27T08:16:51.113Z,993.66
2016-04-27T08:17:50.429Z,993.61
2016-04-27T08:18:50.415Z,993.61
2016-04-27T08:19:50.591Z,993.68
2016-04-27T08:20:50.374Z,993.7
2016-04-27T08:21:50.346Z,993.73
2016-04-27T08:22:50.334Z,993.67
2016-04-27T08:23:50.320Z,993.7
2016-04-27T08:24:50.292Z,993.73
2016-04-27T08:25:50.278Z,993.77
2016-04-27T08:26:50.265Z,993.69
2016-04-27T08:27:50.236Z,993.75
2016-04-27T08:28:50.225Z,993.79
2016-04-27T08:29:50.211Z,993.81
2016-04-27T08:30:50.198Z,993.82
2016-04-27T08:31:50.170Z,993.86
2016-04-27T08:32:50.153Z,993.87
2016-04-27T08:33:50.142Z,993.85
2016-04-27T08:34:50.128Z,993.91
2016-04-27T08:35:50.099Z,993.91
2016-04-27T08:36:50.087Z,994.05
2016-04-27T08:37:50.105Z,994
2016-04-27T08:38:50.045Z,994.03
2016-04-27T08:39:50.032Z,994.05
2016-04-27T08:40:50.019Z,994.03
2016-04-27T08:41:50.007Z,994.09
2016-04-27T08:42:49.977Z,994.07
2016-04-27T08:43:49.965Z,994.19
2016-04-27T08:44:49.951Z,994.15
2016-04-27T08:45:49.939Z,994.16
2016-04-27T08:46:49.926Z,994.13
2016-04-27T08:47:49.912Z,994.19
2016-04-27T08:48:49.901Z,994.18
2016-04-27T08:49:49.887Z,994.27
2016-04-27T08:50:49.874Z,994.31
2016-04-27T08:51:49.862Z,994.17
2016-04-27T08:52:49.848Z,994.35
2016-04-27T08:53:49.835Z,994.24
2016-04-27T08:54:49.822Z,994.26
2016-04-27T08:55:49.810Z,994.29
2016-04-27T08:56:49.797Z,994.23
2016-04-27T08:57:49.783Z,994.24
2016-04-27T08:58:49.771Z,994.21
2016-04-27T08:59:49.758Z,994.26
2016-04-27T09:00:49.745Z,994.28
2016-04-27T09:01:49.731Z,994.24
2016-04-27T09:02:49.719Z,994.3
2016-04-27T09:03:49.706Z,994.32
2016-04-27T09:04:49.694Z,994.34
2016-04-27T09:05:49.680Z,994.36
2016-04-27T09:06:49.667Z,994.38
2016-04-27T09:07:49.655Z,994.4
2016-04-27T09:08:49.625Z,994.34
2016-04-27T09:09:49.613Z,994.39
2016-04-27T09:10:49.600Z,994.34
2016-04-27T09:11:49.603Z,994.33
2016-04-27T09:12:49.574Z,994.36
2016-04-27T09:13:49.560Z,994.36
2016-04-27T09:14:49.548Z,994.3
2016-04-27T09:15:49.535Z,994.33
2016-04-27T09:16:49.522Z,994.32
2016-04-27T09:17:49.510Z,994.39
2016-04-27T09:18:49.481Z,994.38
2016-04-27T09:19:49.468Z,994.38
2016-04-27T09:20:49.455Z,994.46
2016-04-27T09:21:49.660Z,994.41
2016-04-27T09:22:49.445Z,994.41
2016-04-27T09:23:49.416Z,994.79
2016-04-27T09:24:49.387Z,994.8
2016-04-27T09:25:49.375Z,994.62
2016-04-27T09:26:49.361Z,994.87
2016-04-27T09:27:49.365Z,994.7
2016-04-27T09:28:49.336Z,994.8
2016-04-27T09:29:49.323Z,994.53
2016-04-27T09:30:49.309Z,994.69
2016-04-27T09:31:50.859Z,994.66
2016-04-27T09:32:49.284Z,994.78
2016-04-27T09:33:49.272Z,994.64
2016-04-27T09:34:49.274Z,994.64
2016-04-27T09:35:49.261Z,994.54
2016-04-27T09:36:49.795Z,994.56
2016-04-27T09:37:49.235Z,994.56
2016-04-27T09:38:49.222Z,994.58
2016-04-27T09:39:49.208Z,994.66
2016-04-27T09:40:49.197Z,994.73
2016-04-27T09:41:49.277Z,994.68
2016-04-27T09:42:49.171Z,994.68
2016-04-27T09:43:49.174Z,994.64
2016-04-27T09:44:49.144Z,994.71
2016-04-27T09:45:49.147Z,994.78
2016-04-27T09:46:49.166Z,994.6
2016-04-27T09:47:49.121Z,994.75
2016-04-27T09:48:49.108Z,994.63
2016-04-27T09:49:49.096Z,994.57
2016-04-27T09:50:49.083Z,994.6
2016-04-27T09:51:49.226Z,994.65
2016-04-27T09:52:49.073Z,994.57
2016-04-27T09:53:49.044Z,994.5
2016-04-27T09:54:49.031Z,994.6
2016-04-27T09:55:49.033Z,994.59
2016-04-27T09:56:49.224Z,994.59
2016-04-27T09:57:48.992Z,994.68
2016-04-27T09:58:48.979Z,994.67
2016-04-27T09:59:48.967Z,994.63
2016-04-27T10:00:48.969Z,994.68
2016-04-27T10:01:50.065Z,994.66
2016-04-27T10:02:48.943Z,994.62
2016-04-27T10:03:48.930Z,994.64
2016-04-27T10:04:48.917Z,994.63
2016-04-27T10:05:48.904Z,994.7
2016-04-27T10:06:48.892Z,994.68
2016-04-27T10:07:48.878Z,994.64
2016-04-27T10:08:48.865Z,994.68
2016-04-27T10:09:48.853Z,994.7
2016-04-27T10:10:48.839Z,994.67
2016-04-27T10:11:48.826Z,994.78
2016-04-27T10:12:48.814Z,994.74
2016-04-27T10:13:48.800Z,994.84
2016-04-27T10:14:48.803Z,994.78
2016-04-27T10:15:48.790Z,994.95
2016-04-27T10:16:49.028Z,994.94
2016-04-27T10:17:48.765Z,994.88
2016-04-27T10:18:48.752Z,994.82
2016-04-27T10:19:48.958Z,994.93
2016-04-27T10:20:48.741Z,994.95
2016-04-27T10:21:48.807Z,994.97
2016-04-27T10:22:48.905Z,995.06
2016-04-27T10:23:48.704Z,994.98
2016-04-27T10:24:48.706Z,995.1
2016-04-27T10:25:48.695Z,995.05
2016-04-27T10:26:48.681Z,995.12
2016-04-27T10:27:48.669Z,995.22
2016-04-27T10:28:48.657Z,995.12
2016-04-27T10:29:48.659Z,995.16
2016-04-27T10:30:48.646Z,995.18
2016-04-27T10:31:48.648Z,995.24
2016-04-27T10:32:48.636Z,995.18
2016-04-27T10:33:48.639Z,995.23
2016-04-27T10:34:48.626Z,995.29
2016-04-27T10:35:48.628Z,995.35
2016-04-27T10:36:48.615Z,995.36
2016-04-27T10:37:48.603Z,995.5
2016-04-27T10:38:48.620Z,995.34
2016-04-27T10:39:48.592Z,995.53
2016-04-27T10:40:48.610Z,995.45
2016-04-27T10:41:52.770Z,995.54
2016-04-27T10:42:48.585Z,995.53
2016-04-27T10:43:48.681Z,995.56
2016-04-27T10:44:48.574Z,995.64
2016-04-27T10:45:48.593Z,995.39
2016-04-27T10:46:48.627Z,995.46
2016-04-27T10:47:48.567Z,995.48
2016-04-27T10:48:48.569Z,995.51
2016-04-27T10:49:48.557Z,995.38
2016-04-27T10:50:48.560Z,995.43
2016-04-27T10:51:48.859Z,995.38
2016-04-27T10:52:48.549Z,995.47
2016-04-27T10:53:49.021Z,995.3
2016-04-27T10:54:48.539Z,995.46
2016-04-27T10:55:48.541Z,995.55
2016-04-27T10:56:48.528Z,995.5
2016-04-27T10:57:48.532Z,995.47
2016-04-27T10:58:48.534Z,995.6
2016-04-27T10:59:48.521Z,995.63
2016-04-27T11:00:48.527Z,995.59
2016-04-27T11:01:48.514Z,995.63
2016-04-27T11:02:48.517Z,995.53
2016-04-27T11:03:48.520Z,995.56
2016-04-27T11:04:48.508Z,995.56
2016-04-27T11:05:48.510Z,995.44
2016-04-27T11:06:48.793Z,995.5
2016-04-27T11:07:49.000Z,995.58
2016-04-27T11:08:48.502Z,995.44
2016-04-27T11:09:48.505Z,995.52
2016-04-27T11:10:48.508Z,995.5
2016-04-27T11:11:48.495Z,995.57
2016-04-27T11:12:48.482Z,995.48
2016-04-27T11:13:48.485Z,995.55
2016-04-27T11:14:48.487Z,995.51
2016-04-27T11:15:48.474Z,995.55
2016-04-27T11:16:49.726Z,995.62
2016-04-27T11:17:48.465Z,995.76
2016-04-27T11:18:48.451Z,995.73
2016-04-27T11:19:48.454Z,995.76
2016-04-27T11:20:48.440Z,995.73
2016-04-27T11:21:48.865Z,995.77
2016-04-27T11:22:48.431Z,995.76
2016-04-27T11:23:48.417Z,995.79
2016-04-27T11:24:48.405Z,996.09
2016-04-27T11:25:48.392Z,996.18
2016-04-27T11:26:48.394Z,996.2
2016-04-27T11:27:48.381Z,996.31
2016-04-27T11:28:48.369Z,996.28
2016-04-27T11:29:48.356Z,996.26
2016-04-27T11:30:48.343Z,996.28
2016-04-27T11:31:48.330Z,996.19
2016-04-27T11:32:48.317Z,996.18
2016-04-27T11:33:48.304Z,996.14
2016-04-27T11:34:48.291Z,996.08
2016-04-27T11:35:48.278Z,996.08
2016-04-27T11:36:48.469Z,996.11
2016-04-27T11:37:48.253Z,996.18
2016-04-27T11:38:48.271Z,996.21
2016-04-27T11:39:48.226Z,996.18
2016-04-27T11:40:48.210Z,996.04
2016-04-27T11:41:48.198Z,996.01
2016-04-27T11:42:48.185Z,996.05
2016-04-27T11:43:48.219Z,996.03
2016-04-27T11:44:48.159Z,996.02
2016-04-27T11:45:48.146Z,996.07
2016-04-27T11:46:48.132Z,996.12
2016-04-27T11:47:48.120Z,996.12
2016-04-27T11:48:48.107Z,996.13
2016-04-27T11:49:48.122Z,996.15
2016-04-27T11:50:48.154Z,996.2
2016-04-27T11:51:48.185Z,996.19
2016-04-27T11:52:50.155Z,996.18
2016-04-27T11:53:48.249Z,996.21
2016-04-27T11:54:48.264Z,996.19
2016-04-27T11:55:48.252Z,996.15
2016-04-27T11:56:48.256Z,996.16
2016-04-27T11:57:48.258Z,996.15
2016-04-27T11:58:48.261Z,996.16
2016-04-27T11:59:48.258Z,996.13
2016-04-27T12:00:48.267Z,996.09
2016-04-27T12:01:48.243Z,996.05
2016-04-27T12:02:48.236Z,996.05
2016-04-27T12:03:48.229Z,996.06
2016-04-27T12:04:48.221Z,996.06
2016-04-27T12:05:48.210Z,996.07
2016-04-27T12:06:48.199Z,996
2016-04-27T12:07:48.188Z,996.03
2016-04-27T12:08:48.177Z,996.04
2016-04-27T12:09:48.165Z,996.1
2016-04-27T12:10:48.154Z,996.09
2016-04-27T12:11:48.142Z,996.17
2016-04-27T12:12:48.130Z,996.17
2016-04-27T12:13:48.117Z,996.29
2016-04-27T12:14:48.121Z,996.26
2016-04-27T12:15:48.108Z,996.26
2016-04-27T12:16:48.096Z,996.29
2016-04-27T12:17:48.099Z,996.21
2016-04-27T12:18:48.086Z,996.21
2016-04-27T12:19:48.291Z,996.24
2016-04-27T12:20:48.076Z,996.24
2016-04-27T12:21:48.063Z,996.27
2016-04-27T12:22:48.065Z,996.28
2016-04-27T12:23:48.240Z,996.25
2016-04-27T12:24:49.150Z,996.32
2016-04-27T12:25:48.027Z,996.25
2016-04-27T12:26:48.014Z,996.26
2016-04-27T12:27:48.016Z,996.27
2016-04-27T12:28:48.004Z,996.26
2016-04-27T12:29:49.771Z,996.29
2016-04-27T12:30:47.977Z,996.3